Time;durP1;ratioP1;P1;durP2;ratioP2;P2;SDS_P1;SDS_P2;PMS_P1;PMS_P2;Temp;Humidity;BMP_temperature;BMP_pressure;BME280_temperature;BME280_humidity;BME280_pressure;Samples;Min_cycle;Max_cycle;Signal;HPM_P1;HPM_P2
2023/08/14 00:04:43;;;;;;;2.95;1.20;;;;;;;22.60;47.66;101526.50;16195696;19;129581;-59
2023/08/14 00:10:06;;;;;;;4.85;1.50;;;;;;;22.60;47.89;101523.72;16193343;19;131431;-59
2023/08/14 00:15:28;;;;;;;1.80;1.27;;;;;;;22.58;47.57;101525.91;16187264;19;129433;-59
2023/08/14 00:20:49;;;;;;;2.42;1.23;;;;;;;22.57;47.91;101522.28;16192030;19;129097;-60
2023/08/14 00:26:15;;;;;;;2.75;1.20;;;;;;;22.55;47.96;101521.72;16192507;19;129766;-60
2023/08/14 00:31:37;;;;;;;1.75;1.20;;;;;;;22.54;47.81;101514.44;16136505;19;130456;-60
2023/08/14 00:36:58;;;;;;;1.42;1.20;;;;;;;22.54;48.20;101513.59;16138826;19;130160;-60
2023/08/14 00:42:20;;;;;;;2.72;1.38;;;;;;;22.53;47.94;101523.91;16138988;19;130692;-60
2023/08/14 00:47:45;;;;;;;1.90;1.05;;;;;;;22.53;47.86;101511.88;16133837;19;130439;-60
2023/08/14 00:53:08;;;;;;;2.15;1.15;;;;;;;22.52;47.76;101510.22;16133596;19;129637;-60
2023/08/14 00:58:31;;;;;;;2.67;1.10;;;;;;;22.50;48.21;101496.53;16137106;19;129581;-61
2023/08/14 01:03:53;;;;;;;2.00;1.10;;;;;;;22.50;48.00;101493.75;16132130;19;130357;-60
2023/08/14 01:09:16;;;;;;;3.78;1.20;;;;;;;22.50;48.02;101481.75;16109666;19;130998;-60
2023/08/14 01:14:39;;;;;;;1.63;1.00;;;;;;;22.48;48.02;101483.97;16112712;19;130151;-60
2023/08/14 01:20:04;;;;;;;1.50;0.93;;;;;;;22.48;47.82;101481.19;16112129;19;130163;-60
2023/08/14 01:25:31;;;;;;;2.80;1.20;;;;;;;22.47;48.11;101468.34;16112941;19;131039;-60
2023/08/14 01:30:54;;;;;;;2.72;1.10;;;;;;;22.46;48.18;101466.66;16114158;19;132654;-61
2023/08/14 01:36:19;;;;;;;1.77;0.90;;;;;;;22.44;47.95;101451.03;16112050;19;129876;-60
2023/08/14 01:41:53;;;;;;;2.30;1.35;;;;;;;22.44;47.99;101448.22;16116654;19;130156;-62
2023/08/14 01:47:18;;;;;;;1.80;1.20;;;;;;;22.43;48.07;101449.34;16108292;19;131512;-61
2023/08/14 01:52:40;;;;;;;1.52;1.20;;;;;;;22.42;47.66;101444.03;16116042;19;131290;-60
2023/08/14 01:58:02;;;;;;;1.65;1.10;;;;;;;22.41;47.81;101443.16;16112694;19;130744;-61
2023/08/14 02:03:25;;;;;;;1.65;0.95;;;;;;;22.41;47.93;101431.19;16111255;19;131818;-60
2023/08/14 02:08:47;;;;;;;1.02;0.80;;;;;;;22.40;47.86;101426.72;16109628;19;130792;-60
2023/08/14 02:14:09;;;;;;;2.35;1.13;;;;;;;22.39;47.69;101433.38;16111859;19;129682;-58
2023/08/14 02:19:31;;;;;;;1.80;0.90;;;;;;;22.38;48.44;101432.56;16108272;19;130207;-59
2023/08/14 02:24:53;;;;;;;1.70;0.93;;;;;;;22.37;47.83;101430.88;16109815;19;130308;-59
2023/08/14 02:30:15;;;;;;;1.80;0.80;;;;;;;22.36;47.90;101411.59;16111362;19;131368;-59
2023/08/14 02:35:37;;;;;;;2.05;0.80;;;;;;;22.37;47.95;101413.28;16117824;19;130041;-58
2023/08/14 02:41:03;;;;;;;1.95;1.00;;;;;;;22.35;47.83;101405.19;16118375;19;129909;-59
2023/08/14 02:46:24;;;;;;;2.50;0.95;;;;;;;22.34;47.98;101395.16;16113018;19;129924;-59
2023/08/14 02:51:46;;;;;;;2.55;1.08;;;;;;;22.34;48.06;101402.69;16116157;19;129557;-59
2023/08/14 02:57:08;;;;;;;1.05;0.90;;;;;;;22.32;48.05;101402.91;16113687;19;129586;-59
2023/08/14 03:02:30;;;;;;;1.58;0.95;;;;;;;22.33;48.33;101401.00;16111247;19;130071;-58
2023/08/14 03:07:52;;;;;;;1.67;1.20;;;;;;;22.32;48.26;101411.28;16111674;19;130507;-59
2023/08/14 03:13:15;;;;;;;1.63;0.90;;;;;;;22.32;48.17;101413.25;16111411;19;130678;-59
2023/08/14 03:18:37;;;;;;;0.82;0.70;;;;;;;22.31;48.11;101420.75;16111105;19;130112;-59
2023/08/14 03:23:59;;;;;;;0.73;0.70;;;;;;;22.31;48.15;101408.75;16110113;19;129631;-59
2023/08/14 03:29:21;;;;;;;1.05;0.82;;;;;;;22.30;48.05;101402.34;16110800;19;130679;-59
2023/08/14 03:34:43;;;;;;;1.48;0.88;;;;;;;22.28;48.17;101399.81;16119908;19;129444;-59
2023/08/14 03:40:07;;;;;;;1.52;1.08;;;;;;;22.29;48.08;101411.78;16122426;19;129903;-59
2023/08/14 03:45:29;;;;;;;1.58;0.77;;;;;;;22.27;48.08;101414.03;16126147;19;129560;-59
2023/08/14 03:50:51;;;;;;;1.73;1.05;;;;;;;22.27;48.17;101405.66;16124834;19;129686;-60
2023/08/14 03:56:13;;;;;;;1.23;0.70;;;;;;;22.25;48.29;101417.06;16123804;19;129785;-57
2023/08/14 04:01:36;;;;;;;0.98;0.88;;;;;;;22.25;47.93;101399.50;16124366;19;130502;-60
2023/08/14 04:06:58;;;;;;;1.38;0.98;;;;;;;22.25;48.16;101388.34;16135247;19;130213;-59
2023/08/14 04:12:20;;;;;;;1.88;0.82;;;;;;;22.22;48.29;101372.97;16133166;19;129608;-59
2023/08/14 04:17:43;;;;;;;1.77;1.02;;;;;;;22.23;48.29;101368.25;16138230;19;130175;-60
2023/08/14 04:23:06;;;;;;;1.80;0.90;;;;;;;22.21;48.14;101360.16;16139641;19;129609;-59
2023/08/14 04:28:28;;;;;;;2.50;0.90;;;;;;;22.20;48.35;101357.59;16134062;19;130492;-59
2023/08/14 04:33:50;;;;;;;0.98;0.80;;;;;;;22.20;48.15;101363.16;16138066;19;130570;-60
2023/08/14 04:39:12;;;;;;;1.30;0.70;;;;;;;22.19;47.85;101353.97;16134859;19;129769;-59
2023/08/14 04:44:34;;;;;;;1.60;0.70;;;;;;;22.19;48.11;101347.53;16135753;19;130313;-60
2023/08/14 04:49:56;;;;;;;1.80;0.80;;;;;;;22.18;48.11;101349.50;16134784;19;131436;-60
2023/08/14 04:55:18;;;;;;;2.00;0.90;;;;;;;22.18;47.92;101343.94;16135013;19;129524;-58
2023/08/14 05:00:40;;;;;;;1.25;0.80;;;;;;;22.18;48.09;101348.66;16137655;19;129227;-59
2023/08/14 05:06:02;;;;;;;1.00;0.90;;;;;;;22.17;48.09;101346.94;16118172;19;129937;-59
2023/08/14 05:11:24;;;;;;;1.95;0.93;;;;;;;22.18;48.19;101354.22;16119153;19;130178;-59
2023/08/14 05:16:46;;;;;;;0.77;0.60;;;;;;;22.16;48.13;101357.28;16117112;19;129571;-59
2023/08/14 05:22:09;;;;;;;1.85;0.82;;;;;;;22.16;48.09;101356.41;16117326;19;130546;-60
2023/08/14 05:27:36;;;;;;;1.27;0.82;;;;;;;22.16;48.18;101357.28;16118881;19;130123;-60
2023/08/14 05:32:58;;;;;;;1.67;0.80;;;;;;;22.16;48.11;101367.56;16116833;19;129784;-60
2023/08/14 05:38:20;;;;;;;2.65;0.80;;;;;;;22.16;48.51;101381.50;16118062;19;131000;-58
2023/08/14 05:43:42;;;;;;;2.85;0.77;;;;;;;22.15;48.44;101377.88;16114994;19;130416;-59
2023/08/14 05:49:04;;;;;;;1.00;0.80;;;;;;;22.15;48.44;101388.19;16114492;19;131228;-59
2023/08/14 05:54:26;;;;;;;5.28;1.00;;;;;;;22.13;48.15;101383.72;16111816;19;130888;-59
2023/08/14 05:59:48;;;;;;;1.00;0.80;;;;;;;22.13;48.18;101380.94;16113015;19;129935;-59
2023/08/14 06:05:11;;;;;;;1.17;0.80;;;;;;;22.15;48.39;101374.25;16111733;19;130122;-59
2023/08/14 06:10:33;;;;;;;1.67;0.60;;;;;;;22.13;48.45;101364.22;16112956;19;130213;-59
2023/08/14 06:15:55;;;;;;;1.70;0.60;;;;;;;22.11;48.00;101360.84;16110844;19;129492;-59
2023/08/14 06:21:17;;;;;;;0.93;0.60;;;;;;;22.13;48.39;101357.78;16116637;19;129700;-59
2023/08/14 06:26:39;;;;;;;1.02;0.70;;;;;;;22.13;48.19;101374.50;16115713;19;130582;-59
2023/08/14 06:32:01;;;;;;;2.58;0.63;;;;;;;22.13;48.49;101367.00;16104979;19;130544;-59
2023/08/14 06:37:23;;;;;;;2.15;0.65;;;;;;;22.12;48.37;101365.31;16113356;19;131230;-59
2023/08/14 06:42:45;;;;;;;0.70;0.50;;;;;;;22.13;48.01;101360.56;16105795;19;130917;-59
2023/08/14 06:48:07;;;;;;;1.67;0.80;;;;;;;22.13;48.21;101346.63;16107627;19;131027;-57
2023/08/14 06:53:29;;;;;;;2.35;0.70;;;;;;;22.12;48.10;101354.16;16107510;19;130588;-59
2023/08/14 06:58:51;;;;;;;1.40;0.73;;;;;;;22.13;48.18;101367.00;16107124;19;130516;-60
2023/08/14 07:04:13;;;;;;;1.38;0.70;;;;;;;22.18;47.92;101370.94;16106699;19;130425;-58
2023/08/14 07:09:35;;;;;;;2.05;0.73;;;;;;;22.20;48.20;101374.31;16108223;19;129557;-59
2023/08/14 07:14:57;;;;;;;2.95;1.38;;;;;;;22.30;48.01;101363.31;16111040;19;133677;-59
2023/08/14 07:20:19;;;;;;;6.22;1.95;;;;;;;22.38;47.76;101367.59;16109588;19;129696;-58
2023/08/14 07:25:47;;;;;;;13.73;2.97;;;;;;;22.38;47.44;101365.66;16107833;19;129535;-58
2023/08/14 07:31:09;;;;;;;9.35;2.63;;;;;;;22.38;47.41;101371.22;16105604;19;129781;-58
2023/08/14 07:36:31;;;;;;;8.48;2.30;;;;;;;22.41;47.38;101365.09;16106851;19;131082;-58
2023/08/14 07:41:53;;;;;;;3.78;2.05;;;;;;;22.47;46.83;101356.81;16109230;19;131068;-58
2023/08/14 07:47:15;;;;;;;8.68;1.98;;;;;;;22.48;46.43;101337.03;16102347;19;130682;-58
2023/08/14 07:52:37;;;;;;;7.25;2.67;;;;;;;22.53;46.45;101345.44;16104604;19;132612;-58
2023/08/14 07:57:59;;;;;;;7.43;1.92;;;;;;;22.57;47.06;101342.97;16105379;19;131819;-58
2023/08/14 08:03:21;;;;;;;8.07;2.20;;;;;;;22.57;46.54;101345.75;16101464;19;130071;-58
2023/08/14 08:08:42;;;;;;;9.70;2.67;;;;;;;22.60;46.64;101345.25;16106637;19;130886;-58
2023/08/14 08:14:08;;;;;;;8.45;2.10;;;;;;;22.69;46.69;101345.63;16101677;19;129355;-58
2023/08/14 08:19:30;;;;;;;9.57;1.98;;;;;;;22.79;46.73;101344.84;16097101;19;130607;-61
2023/08/14 08:24:52;;;;;;;8.45;1.88;;;;;;;22.89;46.79;101353.34;16117699;19;132079;-61
2023/08/14 08:30:14;;;;;;;9.23;2.08;;;;;;;22.97;46.43;101350.09;16119295;19;130708;-61
2023/08/14 08:35:36;;;;;;;6.03;1.70;;;;;;;23.04;46.28;101339.53;16125147;19;130279;-61
2023/08/14 08:41:01;;;;;;;5.13;1.42;;;;;;;23.10;46.18;101342.38;16124488;19;129781;-61
2023/08/14 08:46:23;;;;;;;7.82;1.80;;;;;;;23.14;46.29;101349.09;16118152;19;130438;-61
2023/08/14 08:51:45;;;;;;;5.15;1.70;;;;;;;23.18;46.12;101339.06;16118706;19;135308;-60
2023/08/14 08:57:11;;;;;;;5.85;1.67;;;;;;;23.19;45.98;101349.13;16120376;19;130830;-61
2023/08/14 09:02:33;;;;;;;7.03;1.50;;;;;;;23.21;45.91;101346.91;16121214;19;129720;-58
2023/08/14 09:07:55;;;;;;;6.13;1.30;;;;;;;23.23;46.09;101346.63;16118245;19;129131;-58
2023/08/14 09:13:17;;;;;;;4.97;1.52;;;;;;;23.24;45.83;101343.59;16117319;19;133789;-57
2023/08/14 09:18:57;;;;;;;5.17;1.57;;;;;;;23.25;45.88;101345.28;16110917;19;132560;-59
2023/08/14 09:24:20;;;;;;;4.35;1.50;;;;;;;23.26;45.75;101340.53;16105707;19;131203;-59
2023/08/14 09:29:42;;;;;;;6.18;1.30;;;;;;;23.25;45.76;101336.91;16114135;19;134591;-59
2023/08/14 09:35:05;;;;;;;7.15;1.67;;;;;;;23.25;45.81;101334.13;16114545;19;130035;-59
2023/08/14 09:40:27;;;;;;;7.68;1.50;;;;;;;23.24;45.61;101338.03;16114316;19;131105;-59
2023/08/14 09:45:51;;;;;;;5.80;1.52;;;;;;;23.24;45.63;101337.16;16113534;19;130956;-59
2023/08/14 09:51:15;;;;;;;4.50;1.30;;;;;;;23.23;45.44;101319.59;16114121;19;130503;-57
2023/08/14 09:56:38;;;;;;;5.70;1.43;;;;;;;23.24;44.93;101303.66;16110148;19;129947;-59
2023/08/14 10:02:03;;;;;;;4.53;1.30;;;;;;;23.30;44.52;101291.44;16119492;19;131517;-62
2023/08/14 10:07:26;;;;;;;4.35;1.27;;;;;;;23.33;44.27;101290.88;16117140;19;129611;-60
2023/08/14 10:13:04;;;;;;;9.77;1.38;;;;;;;23.37;43.53;101285.63;16114604;19;129667;-60
2023/08/14 10:18:29;;;;;;;5.50;1.60;;;;;;;23.38;43.42;101284.50;16109308;19;131849;-60
2023/08/14 10:23:52;;;;;;;9.03;1.73;;;;;;;23.38;43.51;101284.50;16116803;19;129551;-61
2023/08/14 10:29:15;;;;;;;8.00;2.13;;;;;;;23.40;42.96;101285.91;16113886;19;130673;-60
2023/08/14 10:34:37;;;;;;;6.72;1.80;;;;;;;23.41;42.61;101275.56;16115999;19;132560;-60
2023/08/14 10:40:22;;;;;;;4.18;1.42;;;;;;;23.44;42.24;101275.88;16114272;19;131573;-61
2023/08/14 10:45:44;;;;;;;5.88;1.70;;;;;;;23.43;42.41;101279.78;16113233;19;130564;-60
2023/08/14 10:51:08;;;;;;;6.28;1.67;;;;;;;23.46;42.16;101289.56;16113741;19;130725;-61
2023/08/14 10:56:45;;;;;;;6.28;1.63;;;;;;;23.49;42.27;101283.44;16111362;19;129551;-61
2023/08/14 11:02:10;;;;;;;6.70;1.50;;;;;;;23.46;42.43;101272.81;16114213;19;131750;-60
2023/08/14 11:07:33;;;;;;;6.30;1.70;;;;;;;23.43;42.26;101262.19;16112779;19;130952;-59
2023/08/14 11:12:56;;;;;;;5.97;1.80;;;;;;;23.42;42.76;101261.34;16108112;19;130696;-60
2023/08/14 11:18:19;;;;;;;7.15;1.40;;;;;;;23.40;42.90;101257.13;16109145;19;130925;-59
2023/08/14 11:23:41;;;;;;;6.78;1.75;;;;;;;23.40;42.59;101262.72;16109384;19;131558;-59
2023/08/14 11:29:03;;;;;;;6.13;1.50;;;;;;;23.41;42.82;101256.88;16108346;19;131334;-61
2023/08/14 11:34:25;;;;;;;6.95;1.20;;;;;;;23.41;43.27;101242.06;16108760;19;130489;-61
2023/08/14 11:39:47;;;;;;;7.90;1.80;;;;;;;23.39;43.01;101241.50;16107794;19;129687;-62
2023/08/14 11:45:10;;;;;;;5.38;1.33;;;;;;;23.39;43.45;101238.69;16112463;19;129542;-62
2023/08/14 11:50:32;;;;;;;4.35;1.20;;;;;;;23.37;43.23;101227.00;16111528;19;129930;-61
2023/08/14 11:55:54;;;;;;;4.32;1.00;;;;;;;23.35;43.79;101222.50;16117805;19;129757;-62
2023/08/14 12:01:16;;;;;;;6.18;1.30;;;;;;;23.34;43.63;101226.41;16125648;19;129700;-62
2023/08/14 12:06:38;;;;;;;5.93;1.38;;;;;;;23.34;43.95;101222.78;16129045;19;130579;-61
2023/08/14 12:12:00;;;;;;;7.90;1.77;;;;;;;23.34;43.73;101229.22;16129953;19;130085;-61
2023/08/14 12:17:22;;;;;;;5.05;1.40;;;;;;;23.34;43.44;101229.22;16127458;19;131540;-61
2023/08/14 12:22:44;;;;;;;2.30;1.05;;;;;;;23.33;43.82;101230.31;16124613;19;129688;-62
2023/08/14 12:28:20;;;;;;;3.63;1.20;;;;;;;23.33;43.78;101218.28;16124538;19;129620;-61
2023/08/14 12:33:42;;;;;;;5.80;1.50;;;;;;;23.32;43.81;101205.47;16128346;19;130487;-61
2023/08/14 12:39:07;;;;;;;4.10;1.20;;;;;;;23.31;43.66;101201.81;16119455;19;129932;-61
2023/08/14 12:44:29;;;;;;;6.85;1.30;;;;;;;23.32;43.89;101191.50;16122181;19;129449;-62
2023/08/14 12:49:51;;;;;;;5.15;1.02;;;;;;;23.33;43.64;101185.66;16120721;19;130355;-63
2023/08/14 12:55:14;;;;;;;4.18;1.13;;;;;;;23.34;44.00;101181.75;16121449;19;129941;-61
2023/08/14 13:00:39;;;;;;;4.55;1.23;;;;;;;23.34;43.88;101170.59;16122625;19;130046;-62
2023/08/14 13:06:02;;;;;;;6.60;1.33;;;;;;;23.33;43.87;101168.91;16121483;19;130674;-60
2023/08/14 13:11:24;;;;;;;6.13;1.40;;;;;;;23.33;43.98;101157.72;16122158;19;131381;-60
2023/08/14 13:16:46;;;;;;;3.90;1.50;;;;;;;23.32;44.21;101150.47;16110826;19;133308;-60
2023/08/14 13:22:15;;;;;;;5.10;1.20;;;;;;;23.31;44.31;101143.19;16122406;19;130086;-61
2023/08/14 13:27:38;;;;;;;3.60;1.17;;;;;;;23.30;44.51;101135.94;16124636;19;130794;-59
2023/08/14 13:33:00;;;;;;;5.93;1.63;;;;;;;23.30;44.15;101119.19;16120750;19;129810;-58
2023/08/14 13:38:22;;;;;;;4.30;1.30;;;;;;;23.37;44.66;101118.94;16117029;19;130971;-66
2023/08/14 13:43:45;;;;;;;9.20;1.95;;;;;;;23.39;44.90;101116.72;16121200;19;130914;-64
2023/08/14 13:49:06;;;;;;;4.63;1.23;;;;;;;23.39;44.75;101121.44;16120302;19;131889;-66
2023/08/14 13:54:28;;;;;;;7.15;1.92;;;;;;;23.38;44.74;101117.00;16115173;19;129994;-66
2023/08/14 13:59:50;;;;;;;5.38;1.27;;;;;;;23.37;44.88;101116.13;16121708;19;130189;-66
2023/08/14 14:05:12;;;;;;;7.50;1.60;;;;;;;23.37;44.94;101112.53;16114924;19;130409;-61
2023/08/14 14:10:34;;;;;;;5.72;1.38;;;;;;;23.36;44.94;101122.84;16112601;19;129779;-66
2023/08/14 14:15:56;;;;;;;4.25;1.17;;;;;;;23.37;44.92;101112.53;16108168;19;131517;-66
2023/08/14 14:21:18;;;;;;;5.85;1.23;;;;;;;23.35;44.94;101110.00;16112831;19;130724;-66
2023/08/14 14:26:44;;;;;;;;;;;;;;;23.31;45.02;101104.13;16113752;19;129330;-66
2023/08/14 14:32:06;;;;;;;8.23;1.50;;;;;;;23.35;44.79;101096.03;16116232;19;130404;-66
2023/08/14 14:37:28;;;;;;;2.60;1.10;;;;;;;23.35;44.69;101096.88;16111410;19;130760;-66
2023/08/14 14:42:51;;;;;;;4.15;1.00;;;;;;;23.35;44.71;101099.69;16109105;19;130381;-67
2023/08/14 14:48:13;;;;;;;5.55;1.38;;;;;;;23.37;45.02;101092.97;16105337;19;130245;-66
2023/08/14 14:53:35;;;;;;;9.73;1.85;;;;;;;23.38;44.29;101087.13;16116222;19;130513;-64
2023/08/14 14:58:57;;;;;;;13.93;1.80;;;;;;;23.46;43.81;101099.69;16118231;19;129910;-65
2023/08/14 15:04:20;;;;;;;7.85;1.77;;;;;;;23.53;43.54;101100.25;16123153;19;130819;-64
2023/08/14 15:09:42;;;;;;;12.32;1.70;;;;;;;23.58;43.57;101105.91;16115489;19;131206;-64
2023/08/14 15:15:04;;;;;;;8.10;1.70;;;;;;;23.63;43.46;101099.50;16108491;19;130814;-66
2023/08/14 15:20:27;;;;;;;8.05;1.90;;;;;;;23.63;43.47;101108.69;16114347;19;130404;-67
2023/08/14 15:25:49;;;;;;;15.85;2.30;;;;;;;23.63;43.49;101116.25;16120632;19;129678;-68
2023/08/14 15:31:11;;;;;;;7.50;1.73;;;;;;;23.59;43.66;101110.38;16124397;19;131183;-67
2023/08/14 15:36:34;;;;;;;6.10;1.83;;;;;;;23.54;43.82;101107.53;16142916;19;128976;-67
2023/08/14 15:41:56;;;;;;;8.45;1.85;;;;;;;23.53;43.96;101107.81;16199047;19;129154;-64
2023/08/14 15:47:18;;;;;;;8.52;1.88;;;;;;;23.50;44.20;101106.44;16195853;19;129146;-67
2023/08/14 15:52:40;;;;;;;14.18;2.67;;;;;;;23.48;44.19;101101.09;16204261;19;130449;-66
2023/08/14 15:58:03;;;;;;;9.27;2.30;;;;;;;23.49;44.36;101110.31;16202684;19;129609;-66
2023/08/14 16:03:25;;;;;;;9.30;1.80;;;;;;;23.48;44.28;101098.31;16206796;19;130028;-66
2023/08/14 16:08:47;;;;;;;10.30;1.67;;;;;;;23.47;44.62;101109.75;16208386;19;129351;-65
2023/08/14 16:14:09;;;;;;;5.43;1.88;;;;;;;23.47;44.39;101101.38;16207404;19;129660;-65
2023/08/14 16:19:32;;;;;;;5.50;1.90;;;;;;;23.47;43.98;101090.22;16203272;19;130086;-65
2023/08/14 16:24:54;;;;;;;5.93;1.75;;;;;;;23.46;44.33;101094.13;16205825;19;130222;-66
2023/08/14 16:30:16;;;;;;;6.18;2.00;;;;;;;23.47;44.05;101091.03;16205693;19;130445;-68
2023/08/14 16:35:38;;;;;;;7.75;1.98;;;;;;;23.47;44.40;101095.81;16207730;19;129842;-66
2023/08/14 16:41:01;;;;;;;6.10;1.98;;;;;;;23.47;44.58;101085.44;16205179;19;129973;-66
2023/08/14 16:46:23;;;;;;;4.15;1.77;;;;;;;23.48;44.22;101086.31;16206083;19;128407;-66
2023/08/14 16:51:45;;;;;;;7.55;2.00;;;;;;;23.48;44.38;101080.72;16172476;19;129991;-67
2023/08/14 16:57:07;;;;;;;4.75;1.73;;;;;;;23.48;44.41;101089.09;16135102;19;129724;-67
2023/08/14 17:02:29;;;;;;;4.90;1.70;;;;;;;23.49;44.31;101079.63;16128648;19;131591;-66
2023/08/14 17:07:51;;;;;;;5.93;2.03;;;;;;;23.49;44.51;101076.81;16124615;19;129403;-67
2023/08/14 17:13:13;;;;;;;8.02;2.17;;;;;;;23.50;44.34;101072.91;16124510;19;129621;-64
2023/08/14 17:18:35;;;;;;;5.22;2.03;;;;;;;23.50;44.47;101068.16;16128569;19;130143;-67
2023/08/14 17:23:57;;;;;;;6.07;1.98;;;;;;;23.51;44.46;101080.16;16120578;19;133889;-66
2023/08/14 17:29:23;;;;;;;4.78;1.65;;;;;;;23.53;44.46;101083.50;16118974;19;129614;-67
2023/08/14 17:34:47;;;;;;;2.88;1.60;;;;;;;23.52;44.67;101081.81;16118296;19;129711;-68
2023/08/14 17:40:09;;;;;;;7.53;1.60;;;;;;;23.51;44.46;101085.72;16114456;19;130858;-68
2023/08/14 17:45:32;;;;;;;6.13;1.70;;;;;;;23.50;44.57;101072.91;16117347;19;130578;-66
2023/08/14 17:50:54;;;;;;;6.72;1.98;;;;;;;23.54;44.13;101082.41;16121076;19;129968;-65
2023/08/14 17:56:16;;;;;;;5.70;1.98;;;;;;;23.58;44.13;101086.34;16124001;19;128973;-65
2023/08/14 18:01:40;;;;;;;5.67;2.03;;;;;;;23.59;44.05;101082.44;16119237;19;130283;-64
2023/08/14 18:07:03;;;;;;;7.50;2.05;;;;;;;23.62;44.33;101087.50;16124128;19;131329;-59
2023/08/14 18:12:25;;;;;;;6.57;1.73;;;;;;;23.61;44.03;101096.13;16122447;19;130357;-60
2023/08/14 18:17:47;;;;;;;6.82;1.90;;;;;;;23.61;44.18;101090.53;16119798;19;129344;-58
2023/08/14 18:23:09;;;;;;;10.18;2.10;;;;;;;23.61;44.42;101102.56;16123993;19;130008;-60
2023/08/14 18:28:31;;;;;;;10.18;1.85;;;;;;;23.61;44.82;101107.28;16114398;19;130272;-60
2023/08/14 18:33:53;;;;;;;6.55;2.25;;;;;;;23.60;44.52;101106.47;16122086;19;129785;-62
2023/08/14 18:39:16;;;;;;;9.25;1.88;;;;;;;23.59;44.94;101101.16;16122939;19;130748;-62
2023/08/14 18:44:38;;;;;;;6.95;1.95;;;;;;;23.57;45.24;101101.41;16125854;19;130471;-63
2023/08/14 18:50:00;;;;;;;7.47;1.65;;;;;;;23.57;45.11;101106.16;16121239;19;130739;-62
2023/08/14 18:55:25;;;;;;;10.27;1.90;;;;;;;23.57;45.65;101101.41;16127758;19;130299;-62
2023/08/14 19:00:48;;;;;;;9.02;1.65;;;;;;;23.54;45.99;101113.13;16115933;19;131227;-64
2023/08/14 19:06:10;;;;;;;8.35;2.22;;;;;;;23.54;46.07;101115.09;16110106;19;130040;-62
2023/08/14 19:11:32;;;;;;;8.55;2.20;;;;;;;23.54;46.25;101124.28;16120267;19;129946;-61
2023/08/14 19:16:54;;;;;;;6.47;1.90;;;;;;;23.54;46.33;101127.06;16118640;19;130293;-62
2023/08/14 19:22:16;;;;;;;11.07;2.00;;;;;;;23.54;46.51;101127.06;16119926;19;129641;-63
2023/08/14 19:27:40;;;;;;;9.40;1.70;;;;;;;23.54;46.01;101140.22;16114204;19;130818;-64
2023/08/14 19:33:02;;;;;;;10.13;1.70;;;;;;;23.53;46.56;101117.03;16116927;19;133778;-63
2023/08/14 19:38:25;;;;;;;9.52;1.85;;;;;;;23.50;46.46;101123.19;16114687;19;130368;-64
2023/08/14 19:43:48;;;;;;;5.93;1.80;;;;;;;23.47;46.59;101118.97;16107192;19;130310;-63
2023/08/14 19:49:10;;;;;;;5.90;1.65;;;;;;;23.45;46.68;101120.34;16097581;19;130553;-63
2023/08/14 19:54:32;;;;;;;8.15;1.80;;;;;;;23.44;47.08;101113.09;16105171;19;130843;-63
2023/08/14 19:59:54;;;;;;;5.30;1.63;;;;;;;23.42;46.46;101126.47;16100755;19;131284;-63
2023/08/14 20:05:16;;;;;;;4.07;1.45;;;;;;;23.41;46.68;101135.97;16098744;19;129499;-62
2023/08/14 20:10:38;;;;;;;5.03;1.73;;;;;;;23.40;46.90;101148.25;16095302;19;131096;-63
2023/08/14 20:16:00;;;;;;;6.43;1.75;;;;;;;23.38;46.69;101147.72;16098025;19;131345;-63
2023/08/14 20:21:22;;;;;;;5.97;1.60;;;;;;;23.38;47.16;101159.69;16112085;19;131604;-61
2023/08/14 20:26:44;;;;;;;9.63;1.80;;;;;;;23.41;47.37;101158.31;16109436;19;129973;-61
2023/08/14 20:32:06;;;;;;;10.60;1.88;;;;;;;23.46;47.22;101155.53;16102016;19;130441;-68
2023/08/14 20:37:28;;;;;;;8.90;1.63;;;;;;;23.46;47.81;101150.78;16128015;19;129283;-61
2023/08/14 20:42:50;;;;;;;7.25;1.63;;;;;;;23.47;48.24;101135.72;16116034;19;129929;-60
2023/08/14 20:48:12;;;;;;;8.32;1.42;;;;;;;23.50;48.32;101139.94;16117146;19;130758;-58
2023/08/14 20:53:35;;;;;;;7.78;2.00;;;;;;;23.49;48.23;101143.84;16111758;19;130981;-59
2023/08/14 20:58:57;;;;;;;6.07;1.77;;;;;;;23.48;48.31;101142.16;16114883;19;133323;-58
2023/08/14 21:04:20;;;;;;;6.57;2.15;;;;;;;23.47;48.48;101140.47;16112966;19;129560;-58
2023/08/14 21:09:42;;;;;;;7.85;1.65;;;;;;;23.44;48.32;101141.00;16113654;19;133974;-59
2023/08/14 21:15:04;;;;;;;5.90;1.60;;;;;;;23.43;48.31;101134.59;16110865;19;129816;-57
2023/08/14 21:20:27;;;;;;;6.95;1.70;;;;;;;23.42;48.28;101132.06;16111784;19;129876;-59
2023/08/14 21:25:49;;;;;;;4.68;1.40;;;;;;;23.40;48.55;101140.72;16119415;19;131278;-59
2023/08/14 21:31:11;;;;;;;6.20;1.58;;;;;;;23.39;48.26;101132.59;16115131;19;129959;-57
2023/08/14 21:36:33;;;;;;;7.60;1.92;;;;;;;23.37;48.16;101130.09;16117488;19;129664;-59
2023/08/14 21:41:55;;;;;;;3.85;1.50;;;;;;;23.35;48.36;101127.59;16112040;19;131518;-59
2023/08/14 21:47:17;;;;;;;5.50;1.75;;;;;;;23.35;48.62;101126.75;16112589;19;135433;-59
2023/08/14 21:52:42;;;;;;;4.07;1.67;;;;;;;23.33;48.28;101118.66;16118200;19;131189;-57
2023/08/14 21:58:04;;;;;;;6.47;1.60;;;;;;;23.33;48.34;101126.16;16118183;19;129615;-57
2023/08/14 22:03:26;;;;;;;3.72;1.65;;;;;;;23.31;48.11;101140.41;16114317;19;130358;-57
2023/08/14 22:08:48;;;;;;;9.68;1.98;;;;;;;23.30;48.21;101155.47;16115277;19;129733;-58
2023/08/14 22:14:10;;;;;;;5.13;1.63;;;;;;;23.30;48.26;101155.47;16113803;19;130282;-58
2023/08/14 22:19:32;;;;;;;6.22;1.92;;;;;;;23.28;48.15;101162.47;16112767;19;129818;-58
2023/08/14 22:24:54;;;;;;;4.18;1.50;;;;;;;23.28;47.97;101160.50;16113470;19;131760;-58
2023/08/14 22:30:16;;;;;;;4.97;1.38;;;;;;;23.27;48.38;101185.91;16112016;19;129535;-57
2023/08/14 22:35:38;;;;;;;3.70;1.63;;;;;;;23.26;48.15;101185.06;16110888;19;129872;-54
2023/08/14 22:41:00;;;;;;;5.68;1.60;;;;;;;23.24;48.09;101187.28;16111779;19;130329;-57
2023/08/14 22:46:22;;;;;;;7.30;1.77;;;;;;;23.23;47.82;101207.94;16108628;19;133915;-57
2023/08/14 22:51:44;;;;;;;5.40;1.73;;;;;;;23.22;47.83;101180.28;16111793;19;129532;-57
2023/08/14 22:57:06;;;;;;;4.35;1.60;;;;;;;23.19;47.67;101192.84;16114016;19;131216;-57
2023/08/14 23:02:28;;;;;;;4.93;1.60;;;;;;;23.18;47.64;101193.94;16111520;19;131202;-55
2023/08/14 23:07:51;;;;;;;7.28;1.83;;;;;;;23.18;47.74;101179.97;16109715;19;130048;-57
2023/08/14 23:13:13;;;;;;;4.53;1.55;;;;;;;23.17;47.68;101192.25;16107220;19;129461;-56
2023/08/14 23:18:35;;;;;;;5.60;1.73;;;;;;;23.16;47.31;101188.63;16110875;19;129483;-57
2023/08/14 23:23:57;;;;;;;4.85;1.70;;;;;;;23.16;47.91;101196.16;16110896;19;131785;-57
2023/08/14 23:29:19;;;;;;;6.32;1.67;;;;;;;23.15;47.94;101197.25;16113385;19;131144;-55
2023/08/14 23:34:41;;;;;;;4.50;1.50;;;;;;;23.14;47.68;101184.44;16110401;19;129534;-56
2023/08/14 23:40:03;;;;;;;4.47;1.48;;;;;;;23.14;47.81;101195.63;16108136;19;130199;-57
2023/08/14 23:45:25;;;;;;;4.43;1.60;;;;;;;23.13;47.94;101191.13;16107494;19;129094;-57
2023/08/14 23:50:47;;;;;;;5.78;1.75;;;;;;;23.12;47.83;101195.88;16116286;19;129827;-57
2023/08/14 23:56:09;;;;;;;3.53;1.40;;;;;;;23.11;47.81;101183.03;16118229;19;130778;-58
